Atibaia, Brazil
Current Conditions -  °F | °C
As of 6:00 PM on Friday 19 Dec 2014 (Local Time) from SBGR Reporting Station
Overcast Overcast  
Wind Chill: 73°   Ceiling: 1000
Heat Index: 73°   Visibility: 4mi
Dew Point: 72°   Wind: 6mph
Humidity: 94%   Direction: 130°SE
Pressure: 29.88"   Gusts: NA
Location:  23.12°S, 46.57°W
Report Text: SBGR 192000Z 13005KT 7000 SCT007 OVC010 23/22 Q1012
Loading
Personal Weather Stations






























Interactive Weather Map New forecast layout! Learn more

10-Day Weather Forecast

Advertisements
Track Severe Weather on mobile